Time;durP1;ratioP1;P1;durP2;ratioP2;P2;SDS_P1;SDS_P2;PMS_P1;PMS_P2;Temp;Humidity;BMP_temperature;BMP_pressure;BME280_temperature;BME280_humidity;BME280_pressure;Samples;Min_cycle;Max_cycle;Signal;HPM_P1;HPM_P2
2023/04/02 00:02:19;;;;;;;13.30;2.00;;;;;;;8.06;93.13;101624.16;4989376;28;20058;-43
2023/04/02 00:05:18;;;;;;;7.80;1.88;;;;;;;8.06;93.04;101622.25;4984667;28;20104;-43
2023/04/02 00:07:51;;;;;;;6.15;2.50;;;;;;;8.04;93.13;101634.69;4978424;28;20046;-43
2023/04/02 00:10:31;;;;;;;6.28;1.90;;;;;;;8.03;93.18;101644.09;4979592;28;20034;-43
2023/04/02 00:13:08;;;;;;;9.60;2.00;;;;;;;8.04;93.32;101648.50;4984518;28;20039;-43
2023/04/02 00:15:36;;;;;;;10.20;1.63;;;;;;;8.07;93.47;101653.41;4988672;28;20057;-43
2023/04/02 00:18:04;;;;;;;22.13;3.17;;;;;;;8.11;93.59;101651.66;4989334;28;20048;-44
2023/04/02 00:20:39;;;;;;;11.75;3.35;;;;;;;8.10;93.43;101647.28;4982811;28;20050;-44
2023/04/02 00:23:11;;;;;;;4.57;1.70;;;;;;;8.10;93.51;101663.81;4986192;28;20043;-43
2023/04/02 00:25:41;;;;;;;8.57;1.30;;;;;;;8.10;93.68;101653.56;4983867;28;20481;-43
2023/04/02 00:28:14;;;;;;;14.88;2.65;;;;;;;8.11;93.64;101657.97;4985767;28;20050;-43
2023/04/02 00:30:54;;;;;;;8.35;1.77;;;;;;;8.09;93.74;101651.97;4982307;28;20456;-46
2023/04/02 00:33:25;;;;;;;7.45;1.63;;;;;;;8.02;93.88;101648.00;4989285;28;20046;-43
2023/04/02 00:35:53;;;;;;;8.60;1.52;;;;;;;8.02;93.93;101640.53;4989032;28;20050;-43
2023/04/02 00:38:30;;;;;;;4.60;1.25;;;;;;;8.03;94.06;101638.56;4989203;28;20054;-44
2023/04/02 00:41:00;;;;;;;3.17;1.73;;;;;;;8.02;93.92;101650.75;4981791;28;20046;-44
2023/04/02 00:43:30;;;;;;;8.43;1.80;;;;;;;8.00;93.98;101656.53;4989322;28;20116;-44
2023/04/02 00:46:03;;;;;;;5.93;1.83;;;;;;;7.96;94.10;101678.41;4988805;28;20520;-43
2023/04/02 00:48:30;;;;;;;5.15;1.83;;;;;;;7.92;94.16;101688.41;4987486;28;20560;-43
2023/04/02 00:51:06;;;;;;;7.38;2.08;;;;;;;7.91;94.14;101686.78;4984423;28;20046;-46
2023/04/02 00:53:35;;;;;;;7.60;1.63;;;;;;;7.88;94.30;101687.41;4985265;28;20500;-49
2023/04/02 00:56:11;;;;;;;6.25;1.85;;;;;;;7.85;94.33;101693.50;4978339;28;20052;-43
2023/04/02 00:58:39;;;;;;;7.97;2.45;;;;;;;7.82;94.22;101696.88;4978975;28;20047;-53
2023/04/02 01:01:16;;;;;;;7.13;1.65;;;;;;;7.82;94.48;101683.09;4983527;28;20065;-43
2023/04/02 01:03:58;;;;;;;7.60;1.75;;;;;;;7.81;94.17;101684.19;4986711;28;20146;-43
2023/04/02 01:06:29;;;;;;;16.90;6.13;;;;;;;7.79;94.67;101686.44;4984196;28;20681;-43
2023/04/02 01:09:15;;;;;;;11.00;2.13;;;;;;;7.75;94.64;101690.94;4982124;28;20432;-43
2023/04/02 01:12:01;;;;;;;4.82;1.92;;;;;;;7.73;94.96;101695.91;4983735;28;20389;-46
2023/04/02 01:15:05;;;;;;;7.28;1.95;;;;;;;7.70;94.85;101704.81;4988226;28;20049;-46
2023/04/02 01:17:37;;;;;;;7.53;1.85;;;;;;;7.69;95.03;101702.34;4987014;28;20089;-43
2023/04/02 01:20:06;;;;;;;;;;;;;;;7.70;95.16;101698.47;4981108;28;20121;-43
2023/04/02 01:22:50;;;;;;;8.75;2.28;;;;;;;7.71;95.14;101700.94;4986192;28;20009;-44
2023/04/02 01:25:25;;;;;;;8.40;1.98;;;;;;;7.74;95.14;101694.81;4985829;28;20053;-43
2023/04/02 01:28:03;;;;;;;11.98;2.47;;;;;;;7.74;95.17;101703.09;4989227;28;20058;-44
2023/04/02 01:30:34;;;;;;;3.33;1.33;;;;;;;7.73;95.32;101701.44;4979413;28;20050;-44
2023/04/02 01:33:02;;;;;;;11.55;1.98;;;;;;;7.74;95.12;101711.34;4990166;28;20085;-47
2023/04/02 01:35:35;;;;;;;10.93;2.15;;;;;;;7.73;95.40;101687.66;4991864;28;20042;-44
2023/04/02 01:38:20;;;;;;;7.95;2.00;;;;;;;7.74;95.40;101686.53;4992424;28;20097;-46
2023/04/02 01:41:02;;;;;;;6.32;1.90;;;;;;;7.74;95.58;101705.84;4992389;28;20563;-48
2023/04/02 01:43:45;;;;;;;8.57;1.58;;;;;;;7.75;95.69;101701.16;4992465;28;20050;-44
2023/04/02 01:46:30;;;;;;;8.63;2.60;;;;;;;7.79;95.68;101704.91;4974846;28;20492;-43
2023/04/02 01:49:03;;;;;;;6.25;2.10;;;;;;;7.80;95.60;101693.59;4996448;28;20141;-43
2023/04/02 01:51:35;;;;;;;9.40;1.98;;;;;;;7.80;95.62;101703.81;4992217;28;20062;-44
2023/04/02 01:54:03;;;;;;;8.02;2.13;;;;;;;7.78;95.54;101693.06;4992109;28;20053;-43
2023/04/02 01:56:31;;;;;;;5.78;1.70;;;;;;;7.74;95.56;101705.84;4991969;28;20046;-45
2023/04/02 01:58:59;;;;;;;5.85;2.05;;;;;;;7.75;95.88;101718.50;4974492;28;20085;-48
2023/04/02 02:02:01;;;;;;;5.38;2.72;;;;;;;7.77;96.00;101737.50;4991625;28;20162;-44
2023/04/02 02:04:29;;;;;;;8.80;1.85;;;;;;;7.79;96.04;101744.34;4969387;28;20108;-43
2023/04/02 02:06:59;;;;;;;10.43;2.47;;;;;;;7.82;96.10;101738.22;4991624;28;20401;-43
2023/04/02 02:09:29;;;;;;;11.25;2.15;;;;;;;7.83;96.03;101742.63;4991650;28;20042;-44
2023/04/02 02:11:57;;;;;;;6.15;1.80;;;;;;;7.85;95.99;101745.91;4991695;28;20050;-46
2023/04/02 02:14:26;;;;;;;8.23;1.60;;;;;;;7.89;96.26;101751.59;4991822;28;20046;-49
2023/04/02 02:16:55;;;;;;;5.05;1.92;;;;;;;7.92;96.17;101756.50;4991799;28;20054;-45
2023/04/02 02:19:24;;;;;;;7.53;2.28;;;;;;;7.91;96.26;101754.91;4991874;28;20065;-44
2023/04/02 02:21:55;;;;;;;5.90;1.90;;;;;;;7.93;96.23;101771.94;4992050;28;20673;-45
2023/04/02 02:24:27;;;;;;;8.05;1.83;;;;;;;7.94;96.50;101773.59;4979131;28;20051;-44
2023/04/02 02:27:15;;;;;;;6.20;1.70;;;;;;;7.93;96.45;101782.97;4991645;28;20062;-51
2023/04/02 02:29:45;;;;;;;9.23;1.75;;;;;;;7.92;96.32;101782.16;4991501;28;20042;-50
2023/04/02 02:32:15;;;;;;;4.68;1.90;;;;;;;7.94;96.33;101792.91;4989687;28;20058;-48
2023/04/02 02:34:48;;;;;;;9.52;1.70;;;;;;;7.95;96.56;101795.34;4989912;28;20064;-50
2023/04/02 02:37:22;;;;;;;4.15;1.70;;;;;;;7.98;96.50;101799.44;4989232;28;20050;-44
2023/04/02 02:39:55;;;;;;;7.28;2.08;;;;;;;7.96;96.61;101802.50;4987462;28;20506;-45
2023/04/02 02:42:35;;;;;;;6.25;2.72;;;;;;;7.96;96.64;101802.50;4989588;28;20034;-43
2023/04/02 02:45:10;;;;;;;5.95;2.40;;;;;;;7.94;96.59;101804.72;4985015;28;20517;-46
2023/04/02 02:47:38;;;;;;;11.15;2.42;;;;;;;7.92;96.67;101809.72;4989213;28;20050;-45
2023/04/02 02:50:11;;;;;;;7.25;2.40;;;;;;;7.92;96.72;101809.72;4986005;28;20207;-46
2023/04/02 02:52:38;;;;;;;;;;;;;;;7.92;96.90;101809.72;4986701;28;20046;-43
2023/04/02 02:55:13;;;;;;;4.82;2.00;;;;;;;7.93;96.79;101824.34;4991621;28;20443;-45
2023/04/02 02:57:46;;;;;;;7.85;2.65;;;;;;;7.94;96.93;101820.47;4982163;28;20073;-44
2023/04/02 03:02:40;;;;;;;7.43;2.30;;;;;;;7.91;97.04;101819.13;5042391;23;20062;-43
2023/04/02 03:05:08;;;;;;;4.78;2.15;;;;;;;7.91;97.23;101821.91;5007719;28;20038;-43
2023/04/02 03:07:36;;;;;;;9.00;1.90;;;;;;;7.92;97.41;101822.69;5008959;28;20976;-43
2023/04/02 03:10:15;;;;;;;8.25;2.63;;;;;;;7.93;97.58;101836.19;5007101;28;20053;-44
2023/04/02 03:13:14;;;;;;;5.47;2.13;;;;;;;7.92;97.56;101829.03;5009800;28;20038;-43
2023/04/02 03:16:10;;;;;;;19.75;3.80;;;;;;;7.91;97.66;101832.91;5002822;28;20136;-43
2023/04/02 03:18:52;;;;;;;6.60;2.85;;;;;;;7.89;97.65;101831.56;5006232;28;20411;-44
2023/04/02 03:21:37;;;;;;;7.88;2.35;;;;;;;7.86;97.80;101832.97;5007932;28;20407;-51
2023/04/02 03:24:09;;;;;;;12.90;2.78;;;;;;;7.81;97.87;101855.13;5007739;28;20129;-44
2023/04/02 03:26:44;;;;;;;13.00;3.10;;;;;;;7.79;98.04;101845.50;5008661;28;20045;-45
2023/04/02 03:29:23;;;;;;;13.80;2.92;;;;;;;7.78;98.25;101850.19;5009944;28;20084;-44
2023/04/02 03:31:59;;;;;;;11.25;3.38;;;;;;;7.77;98.34;101853.28;5005104;28;20507;-43
2023/04/02 03:34:33;;;;;;;9.10;3.65;;;;;;;7.77;98.47;101862.38;5008488;28;20065;-43
2023/04/02 03:37:21;;;;;;;8.43;2.60;;;;;;;7.77;98.71;101867.88;5007763;28;20153;-47
2023/04/02 03:39:55;;;;;;;10.70;3.28;;;;;;;7.76;98.74;101868.16;5003723;28;20516;-43
2023/04/02 03:42:24;;;;;;;7.60;2.83;;;;;;;7.75;99.09;101867.38;5008332;28;20038;-46
2023/04/02 03:45:16;;;;;;;7.60;2.42;;;;;;;7.74;99.03;101868.47;4990645;28;20128;-44
2023/04/02 03:47:55;;;;;;;6.65;2.47;;;;;;;7.75;99.04;101870.13;5010215;28;20399;-44
2023/04/02 03:50:35;;;;;;;12.77;2.55;;;;;;;7.72;99.00;101856.94;5007851;28;20150;-45
2023/04/02 03:53:04;;;;;;;6.85;2.13;;;;;;;7.71;99.09;101860.78;5007709;28;20042;-43
2023/04/02 03:55:34;;;;;;;11.75;3.05;;;;;;;7.71;99.11;101871.81;5007726;28;20478;-44
2023/04/02 03:58:17;;;;;;;10.23;2.80;;;;;;;7.70;99.21;101875.72;5007842;28;20042;-43
2023/04/02 04:01:02;;;;;;;9.98;2.67;;;;;;;7.69;99.12;101876.81;5007323;28;20058;-43
2023/04/02 04:03:38;;;;;;;6.35;2.53;;;;;;;7.68;99.24;101872.41;4991921;28;20117;-44
2023/04/02 04:06:09;;;;;;;6.93;2.70;;;;;;;7.70;99.29;101886.75;5005892;28;20053;-44
2023/04/02 04:08:49;;;;;;;9.90;2.58;;;;;;;7.70;99.44;101880.41;5005537;28;20511;-44
2023/04/02 04:11:21;;;;;;;11.07;3.47;;;;;;;7.71;99.58;101879.25;4999370;28;20041;-43
2023/04/02 04:13:57;;;;;;;13.52;3.70;;;;;;;7.71;99.66;101877.34;5004608;28;20399;-47
2023/04/02 04:16:45;;;;;;;10.20;2.75;;;;;;;7.71;99.67;101865.47;5007721;28;20508;-46
2023/04/02 04:19:28;;;;;;;6.95;2.67;;;;;;;7.71;99.86;101871.81;5004421;28;20547;-44
2023/04/02 04:22:16;;;;;;;12.30;2.83;;;;;;;7.71;99.86;101871.81;5005317;28;20081;-49
2023/04/02 04:24:46;;;;;;;4.95;2.42;;;;;;;7.71;99.85;101871.81;4996913;28;20388;-44
2023/04/02 04:27:53;;;;;;;10.93;2.53;;;;;;;7.71;99.93;101877.34;5006664;28;20452;-51
2023/04/02 04:30:23;;;;;;;6.05;2.53;;;;;;;7.69;99.97;101882.34;5000378;28;20052;-45
2023/04/02 04:32:57;;;;;;;11.02;2.33;;;;;;;7.67;100.00;101876.31;5005952;28;20046;-45
2023/04/02 04:35:30;;;;;;;12.63;4.20;;;;;;;7.67;100.00;101881.81;5006477;28;20054;-43
2023/04/02 04:38:20;;;;;;;14.00;2.65;;;;;;;7.67;100.00;101886.50;5008925;28;20042;-44
2023/04/02 04:40:52;;;;;;;9.32;2.70;;;;;;;7.64;100.00;101887.91;4992225;28;20050;-44
2023/04/02 04:43:27;;;;;;;;;;;;;;;7.63;100.00;101896.47;5007487;28;20045;-44
2023/04/02 04:46:12;;;;;;;7.20;2.83;;;;;;;7.58;100.00;101894.63;5007097;28;19925;-44
2023/04/02 04:48:56;;;;;;;7.68;3.10;;;;;;;7.56;100.00;101902.38;5003864;28;20108;-45
2023/04/02 04:51:33;;;;;;;14.27;2.67;;;;;;;7.58;100.00;101900.13;5003835;28;20042;-44
2023/04/02 04:53:59;;;;;;;15.10;4.30;;;;;;;7.57;100.00;101892.16;5005991;28;20042;-44
2023/04/02 04:56:29;;;;;;;8.90;3.28;;;;;;;7.56;100.00;101890.53;5007117;28;20056;-45
2023/04/02 04:59:06;;;;;;;7.93;3.42;;;;;;;7.54;100.00;101901.84;4989923;28;20053;-51
2023/04/02 05:01:37;;;;;;;8.35;2.67;;;;;;;7.55;100.00;101895.19;5009618;28;20049;-44
2023/04/02 05:04:13;;;;;;;12.48;2.90;;;;;;;7.56;100.00;101905.13;4993117;28;20046;-44
2023/04/02 05:06:47;;;;;;;8.23;2.60;;;;;;;7.58;100.00;101915.84;5011713;28;20058;-44
2023/04/02 05:09:21;;;;;;;11.85;3.20;;;;;;;7.57;100.00;101915.00;5004464;28;20526;-43
2023/04/02 05:12:14;;;;;;;12.13;4.45;;;;;;;7.57;100.00;101920.53;5011865;28;20541;-46
2023/04/02 05:14:53;;;;;;;13.50;2.80;;;;;;;7.56;100.00;101929.94;5001124;28;20577;-48
2023/04/02 05:17:29;;;;;;;15.98;4.53;;;;;;;7.55;100.00;101927.44;5008644;28;20178;-47
2023/04/02 05:20:15;;;;;;;9.75;2.85;;;;;;;7.56;100.00;101927.16;5008651;28;20048;-44
2023/04/02 05:22:49;;;;;;;7.55;2.88;;;;;;;7.58;100.00;101930.44;5010371;28;20411;-45
2023/04/02 05:25:26;;;;;;;11.60;2.70;;;;;;;7.57;100.00;101928.00;5008707;28;20092;-44
2023/04/02 05:28:05;;;;;;;14.20;4.32;;;;;;;7.57;100.00;101937.06;5008159;28;20148;-44
2023/04/02 05:30:37;;;;;;;11.82;2.85;;;;;;;7.56;100.00;101940.13;4988089;28;20496;-44
2023/04/02 05:33:24;;;;;;;5.65;2.30;;;;;;;7.56;100.00;101942.88;5010008;28;20046;-44
2023/04/02 05:35:57;;;;;;;17.25;3.45;;;;;;;7.55;100.00;101955.00;5010325;28;20053;-47
2023/04/02 05:38:31;;;;;;;6.43;2.97;;;;;;;7.54;100.00;101948.69;5010278;28;20100;-43
2023/04/02 05:41:26;;;;;;;10.18;3.22;;;;;;;7.54;100.00;101954.22;5007929;28;20049;-44
2023/04/02 05:44:02;;;;;;;15.80;3.33;;;;;;;7.49;100.00;101957.03;5008103;28;20108;-45
2023/04/02 05:46:34;;;;;;;9.23;3.40;;;;;;;7.50;100.00;101969.69;5010913;28;20049;-45
2023/04/02 05:49:05;;;;;;;15.85;3.72;;;;;;;7.51;100.00;101971.31;5009742;28;20048;-48
2023/04/02 05:51:42;;;;;;;13.20;3.78;;;;;;;7.50;100.00;101963.34;5007609;28;20551;-44
2023/04/02 05:54:36;;;;;;;10.55;3.25;;;;;;;7.50;100.00;101980.69;5008786;28;20484;-43
2023/04/02 05:57:10;;;;;;;10.48;4.28;;;;;;;7.50;100.00;101975.19;5008374;28;20061;-45
2023/04/02 05:59:42;;;;;;;14.13;6.57;;;;;;;7.49;100.00;101984.59;5010179;28;20046;-45
2023/04/02 06:02:24;;;;;;;9.88;3.20;;;;;;;7.47;100.00;101986.78;5000994;28;20495;-44
2023/04/02 06:04:57;;;;;;;11.18;4.10;;;;;;;7.45;100.00;101979.94;5009983;28;20073;-44
2023/04/02 06:07:45;;;;;;;11.85;4.50;;;;;;;7.47;100.00;101985.97;5005401;28;20470;-44
2023/04/02 06:10:18;;;;;;;9.30;2.92;;;;;;;7.46;100.00;101989.84;5009356;28;20503;-45
2023/04/02 06:12:44;;;;;;;12.13;4.13;;;;;;;7.47;100.00;101997.81;5008103;28;20046;-44
2023/04/02 06:15:16;;;;;;;6.70;3.47;;;;;;;7.46;100.00;102004.47;5009186;28;20104;-44
2023/04/02 06:17:49;;;;;;;10.83;2.67;;;;;;;7.49;100.00;102001.13;5009076;28;20074;-48
2023/04/02 06:20:20;;;;;;;9.43;3.17;;;;;;;7.51;100.00;101998.88;5010395;28;20069;-48
2023/04/02 06:23:05;;;;;;;14.65;3.60;;;;;;;7.53;100.00;102002.16;5006797;28;20438;-51
2023/04/02 06:25:50;;;;;;;7.50;3.20;;;;;;;7.56;100.00;102011.78;5007808;28;20034;-44
2023/04/02 06:28:25;;;;;;;11.45;4.13;;;;;;;7.58;100.00;102017.81;5008558;28;20476;-46
2023/04/02 06:31:00;;;;;;;10.43;3.90;;;;;;;7.55;100.00;102021.97;5008338;28;20085;-44
2023/04/02 06:33:27;;;;;;;13.38;3.40;;;;;;;7.56;100.00;102022.78;5008729;28;20057;-44
2023/04/02 06:35:55;;;;;;;14.20;3.33;;;;;;;7.55;100.00;102024.72;5008522;28;20045;-46
2023/04/02 06:38:26;;;;;;;8.63;3.05;;;;;;;7.56;100.00;102028.31;5009113;28;20037;-44
2023/04/02 06:41:04;;;;;;;33.23;5.67;;;;;;;7.58;100.00;102032.41;5008674;28;20468;-45
2023/04/02 06:43:45;;;;;;;10.52;3.75;;;;;;;7.58;100.00;102037.91;5009568;28;20053;-50
2023/04/02 06:46:24;;;;;;;12.13;3.55;;;;;;;7.59;100.00;102039.56;5003623;28;20049;-44
2023/04/02 06:49:01;;;;;;;11.23;3.38;;;;;;;7.62;100.00;102038.16;5010453;28;20050;-44
2023/04/02 06:51:31;;;;;;;13.60;3.88;;;;;;;7.62;100.00;102040.91;5008264;28;20057;-44
2023/04/02 06:53:58;;;;;;;9.73;3.40;;;;;;;7.63;100.00;102054.41;5008660;28;20042;-44
2023/04/02 06:56:31;;;;;;;10.40;5.10;;;;;;;7.63;100.00;102048.06;5009543;28;20053;-45
2023/04/02 06:58:58;;;;;;;9.88;3.55;;;;;;;7.66;100.00;102062.06;5005599;28;20057;-50
2023/04/02 07:01:28;;;;;;;8.48;3.65;;;;;;;7.67;100.00;102058.22;5005473;28;20465;-44
2023/04/02 07:03:55;;;;;;;9.90;3.58;;;;;;;7.67;100.00;102058.22;5008223;28;20548;-44
2023/04/02 07:06:22;;;;;;;12.27;4.10;;;;;;;7.69;100.00;102067.00;5008951;28;20648;-46
2023/04/02 07:08:49;;;;;;;10.00;4.10;;;;;;;7.68;100.00;102073.63;5007654;28;20482;-44
2023/04/02 07:11:20;;;;;;;15.98;4.90;;;;;;;7.69;100.00;102075.28;5009577;28;20050;-51
2023/04/02 07:13:48;;;;;;;6.13;4.80;;;;;;;7.71;100.00;102075.78;5008180;28;20062;-44
2023/04/02 07:16:26;;;;;;;7.45;3.83;;;;;;;7.74;100.00;102074.38;5009137;28;20053;-45
2023/04/02 07:18:54;;;;;;;7.20;3.72;;;;;;;7.76;100.00;102077.66;5007618;28;20046;-44
2023/04/02 07:21:21;;;;;;;8.32;3.90;;;;;;;7.83;100.00;102067.94;5007207;28;20187;-44
2023/04/02 07:23:48;;;;;;;9.02;3.47;;;;;;;7.91;100.00;102075.56;5008421;28;20072;-45
2023/04/02 07:26:19;;;;;;;9.32;4.70;;;;;;;7.99;100.00;102094.19;5009368;28;20388;-52
2023/04/02 07:28:45;;;;;;;11.82;4.40;;;;;;;8.07;100.00;102094.66;5007396;28;20050;-44
2023/04/02 07:31:16;;;;;;;10.40;4.03;;;;;;;8.10;100.00;102096.84;5009687;28;20054;-44
2023/04/02 07:33:43;;;;;;;10.05;4.13;;;;;;;8.12;100.00;102094.59;5007635;28;20069;-48
2023/04/02 07:36:17;;;;;;;11.60;3.92;;;;;;;8.12;100.00;102103.69;5009606;28;20077;-50
2023/04/02 07:38:45;;;;;;;10.45;4.07;;;;;;;8.14;100.00;102095.94;5007695;28;20060;-45
2023/04/02 07:41:12;;;;;;;10.30;3.60;;;;;;;8.18;100.00;102096.19;5008177;28;20073;-45
2023/04/02 07:43:40;;;;;;;12.98;4.88;;;;;;;8.24;100.00;102103.25;5007772;28;20087;-44
2023/04/02 07:46:08;;;;;;;11.38;4.25;;;;;;;8.31;100.00;102109.28;5007895;28;20065;-44
2023/04/02 07:48:35;;;;;;;6.20;3.63;;;;;;;8.33;100.00;102102.34;5009543;28;20474;-44
2023/04/02 07:51:02;;;;;;;9.65;3.67;;;;;;;8.38;100.00;102109.72;4996550;28;20502;-45
2023/04/02 07:53:34;;;;;;;8.55;4.35;;;;;;;8.45;100.00;102118.44;5009695;28;20053;-45
2023/04/02 07:56:03;;;;;;;8.55;4.45;;;;;;;8.46;100.00;102115.41;4996881;28;20073;-44
2023/04/02 07:58:31;;;;;;;8.98;3.25;;;;;;;8.51;100.00;102120.03;5009659;28;20065;-46
2023/04/02 08:01:00;;;;;;;7.10;4.40;;;;;;;8.57;100.00;102127.13;5009943;28;20057;-46
2023/04/02 08:03:27;;;;;;;5.97;2.75;;;;;;;8.61;100.00;102119.03;5009239;28;20042;-48
2023/04/02 08:05:56;;;;;;;6.43;3.40;;;;;;;8.69;100.00;102133.00;5009217;28;20057;-49
2023/04/02 08:08:24;;;;;;;5.72;3.33;;;;;;;8.76;100.00;102130.72;5009321;28;20117;-45
2023/04/02 08:10:51;;;;;;;8.60;4.07;;;;;;;8.79;100.00;102132.84;5009787;28;20567;-45
2023/04/02 08:13:18;;;;;;;8.02;2.92;;;;;;;8.84;100.00;102138.28;4991586;28;20057;-45
2023/04/02 08:15:44;;;;;;;6.57;3.67;;;;;;;8.94;100.00;102137.31;5009077;28;20057;-45
2023/04/02 08:18:11;;;;;;;8.30;3.50;;;;;;;8.98;100.00;102144.69;5006913;28;20530;-45
2023/04/02 08:20:38;;;;;;;4.75;3.28;;;;;;;9.02;100.00;102144.94;5009336;28;20061;-44
2023/04/02 08:23:14;;;;;;;9.80;3.10;;;;;;;9.07;100.00;102147.59;5008836;28;20085;-45
2023/04/02 08:25:40;;;;;;;8.82;3.35;;;;;;;9.08;100.00;102155.56;5009035;28;20140;-46
2023/04/02 08:28:07;;;;;;;6.93;3.40;;;;;;;9.11;100.00;102143.94;5009238;28;20412;-45
2023/04/02 08:30:34;;;;;;;6.90;3.15;;;;;;;9.13;100.00;102151.94;4991169;28;20054;-45
2023/04/02 08:33:01;;;;;;;6.28;2.38;;;;;;;9.13;100.00;102147.22;5006776;28;20053;-45
2023/04/02 08:35:28;;;;;;;6.75;3.17;;;;;;;9.22;100.00;102133.53;5004642;28;20045;-45
2023/04/02 08:37:55;;;;;;;4.10;2.33;;;;;;;9.24;100.00;102136.00;5004763;28;20072;-44
2023/04/02 08:40:35;;;;;;;6.97;2.75;;;;;;;9.19;100.00;102120.31;5005616;28;20049;-45
2023/04/02 08:43:39;;;;;;;5.35;2.92;;;;;;;9.15;100.00;102128.41;5009105;28;20045;-45
2023/04/02 08:46:37;;;;;;;10.20;2.85;;;;;;;9.28;100.00;102129.56;5009182;28;20053;-45
2023/04/02 08:49:12;;;;;;;5.43;2.20;;;;;;;9.48;100.00;102131.13;5008582;28;20042;-45
2023/04/02 08:51:40;;;;;;;4.05;2.60;;;;;;;9.59;100.00;102127.06;5009645;28;20824;-45
2023/04/02 08:54:22;;;;;;;5.05;2.47;;;;;;;9.71;100.00;102138.47;5009001;28;20044;-49
2023/04/02 08:56:59;;;;;;;3.38;2.10;;;;;;;9.91;100.00;102146.34;5008788;28;20053;-45
2023/04/02 08:59:26;;;;;;;3.65;1.90;;;;;;;10.32;100.00;102151.91;5008411;28;20053;-46
2023/04/02 09:02:01;;;;;;;7.50;2.35;;;;;;;10.81;100.00;102153.84;5008377;28;20056;-48
2023/04/02 09:04:30;;;;;;;6.30;1.90;;;;;;;11.45;100.00;102158.94;5008726;28;20054;-46
2023/04/02 09:06:59;;;;;;;10.20;1.80;;;;;;;11.73;100.00;102162.38;5007860;28;20518;-48
2023/04/02 09:09:26;;;;;;;5.60;1.88;;;;;;;11.72;100.00;102162.69;5009320;28;20543;-46
2023/04/02 09:12:02;;;;;;;2.40;1.73;;;;;;;11.48;100.00;102174.09;5008277;28;20125;-53
2023/04/02 09:14:51;;;;;;;3.58;1.33;;;;;;;11.19;100.00;102171.78;5008753;28;20511;-48
2023/04/02 09:17:20;;;;;;;3.05;1.70;;;;;;;10.96;100.00;102172.91;4998352;28;20125;-46
2023/04/02 09:19:54;;;;;;;1.90;1.80;;;;;;;10.82;100.00;102169.34;5008554;28;20056;-53
2023/04/02 09:22:24;;;;;;;3.78;1.55;;;;;;;10.69;100.00;102164.69;5008370;28;20042;-46
2023/04/02 09:24:52;;;;;;;1.98;1.40;;;;;;;10.60;100.00;102167.34;5008177;28;20080;-47
2023/04/02 09:27:22;;;;;;;5.22;2.13;;;;;;;10.51;100.00;102166.44;5007408;28;20046;-48
2023/04/02 09:29:59;;;;;;;4.55;1.25;;;;;;;10.56;100.00;102173.84;5005776;28;20400;-46
2023/04/02 09:32:32;;;;;;;2.83;1.05;;;;;;;11.11;100.00;102168.94;5000659;28;20054;-45
2023/04/02 09:35:28;;;;;;;2.22;1.02;;;;;;;12.37;96.68;102174.72;4996367;28;20104;-52
2023/04/02 09:38:18;;;;;;;1.30;1.10;;;;;;;12.99;94.30;102180.03;5006091;28;20132;-49
2023/04/02 09:40:55;;;;;;;2.08;1.40;;;;;;;13.00;93.14;102184.47;5005469;28;20046;-48
2023/04/02 09:43:28;;;;;;;3.22;1.00;;;;;;;12.82;93.14;102195.56;5007369;28;20056;-45
2023/04/02 09:45:55;;;;;;;0.73;0.73;;;;;;;12.64;91.72;102196.69;4986789;28;20050;-45
2023/04/02 09:48:32;;;;;;;4.82;1.98;;;;;;;12.16;91.24;102190.31;4991971;28;20046;-45
2023/04/02 09:51:20;;;;;;;3.08;0.90;;;;;;;11.65;91.84;102201.94;5006728;28;20046;-46
2023/04/02 09:54:01;;;;;;;4.25;1.58;;;;;;;11.30;91.74;102202.84;5010076;28;20085;-45
2023/04/02 09:56:33;;;;;;;1.10;0.80;;;;;;;11.83;93.18;102205.69;5009584;28;20056;-45
2023/04/02 09:59:15;;;;;;;4.63;0.90;;;;;;;11.97;89.87;102203.63;5009548;28;20508;-53
2023/04/02 10:01:46;;;;;;;2.92;0.77;;;;;;;11.69;89.33;102204.94;5010374;28;20065;-45
2023/04/02 10:04:43;;;;;;;1.77;0.88;;;;;;;11.47;90.49;102201.03;5009403;28;20072;-47
2023/04/02 10:07:33;;;;;;;3.03;0.85;;;;;;;12.49;90.25;102208.25;5009124;28;20045;-47
2023/04/02 10:10:23;;;;;;;1.48;0.70;;;;;;;14.30;84.68;102222.84;5008509;28;20046;-50
2023/04/02 10:13:25;;;;;;;1.88;0.63;;;;;;;14.55;82.33;102221.94;5003651;28;20137;-50
2023/04/02 10:16:02;;;;;;;2.42;0.60;;;;;;;14.03;82.80;102216.56;5007356;28;20084;-45
2023/04/02 10:18:34;;;;;;;2.70;0.70;;;;;;;13.49;82.93;102214.56;5010875;28;20064;-46
2023/04/02 10:21:03;;;;;;;1.63;0.70;;;;;;;12.96;83.35;102219.59;5005726;28;20077;-47
2023/04/02 10:23:30;;;;;;;2.13;0.63;;;;;;;12.58;84.11;102214.63;5000937;28;20081;-47
2023/04/02 10:26:08;;;;;;;2.13;1.00;;;;;;;12.27;84.33;102211.09;4991140;28;20074;-49
2023/04/02 10:29:05;;;;;;;1.35;0.80;;;;;;;12.00;85.04;102217.69;5006447;28;20092;-44
2023/04/02 10:31:46;;;;;;;1.67;0.70;;;;;;;11.79;85.15;102224.91;5006281;28;20137;-49
2023/04/02 10:34:23;;;;;;;3.90;1.15;;;;;;;11.60;84.79;102215.94;5007434;28;20137;-47
2023/04/02 10:37:38;;;;;;;1.48;1.02;;;;;;;11.39;84.82;102226.72;5007846;28;20141;-46
2023/04/02 10:40:11;;;;;;;2.78;1.20;;;;;;;11.17;84.64;102235.06;4995875;28;20504;-46
2023/04/02 10:42:43;;;;;;;3.83;1.50;;;;;;;11.03;84.59;102234.25;5007562;28;20045;-45
2023/04/02 10:45:16;;;;;;;1.77;1.20;;;;;;;10.94;84.71;102231.41;5005204;28;20052;-46
2023/04/02 10:47:49;;;;;;;3.75;1.23;;;;;;;10.90;84.92;102240.66;4985921;28;20096;-45
2023/04/02 10:50:34;;;;;;;4.88;1.23;;;;;;;10.87;84.89;102235.72;5003341;28;20050;-45
2023/04/02 10:53:12;;;;;;;3.38;1.80;;;;;;;10.85;84.50;102232.47;4993348;28;20057;-43
2023/04/02 10:56:03;;;;;;;2.58;1.45;;;;;;;10.87;84.57;102230.19;4998813;28;20072;-47
2023/04/02 10:58:33;;;;;;;4.13;1.70;;;;;;;10.94;84.65;102236.94;4998213;28;20050;-46
2023/04/02 11:01:06;;;;;;;6.25;3.17;;;;;;;10.96;84.30;102239.41;5001987;28;20046;-46
2023/04/02 11:03:40;;;;;;;2.85;1.92;;;;;;;10.97;84.29;102229.97;5005479;28;20045;-49
2023/04/02 11:06:20;;;;;;;6.32;2.20;;;;;;;10.98;84.30;102231.59;4997515;28;20077;-45
2023/04/02 11:08:49;;;;;;;4.70;1.48;;;;;;;11.01;84.15;102225.44;5010591;28;20037;-46
2023/04/02 11:11:22;;;;;;;3.40;1.50;;;;;;;11.05;83.90;102237.53;5003597;28;20400;-43
2023/04/02 11:14:19;;;;;;;7.13;1.98;;;;;;;11.06;83.87;102230.03;5009048;28;20085;-47
2023/04/02 11:16:51;;;;;;;5.15;1.48;;;;;;;11.02;83.71;102229.84;4999385;28;20125;-45
2023/04/02 11:19:18;;;;;;;;;;;;;;;10.95;83.66;102238.59;5004131;28;20050;-50
2023/04/02 11:21:50;;;;;;;6.10;2.60;;;;;;;10.86;83.79;102225.78;5006805;28;20298;-45
2023/04/02 11:24:29;;;;;;;6.55;2.45;;;;;;;10.79;83.85;102228.16;5005955;28;20133;-51
2023/04/02 11:27:10;;;;;;;8.15;2.58;;;;;;;10.71;84.02;102237.19;5010095;28;20050;-45
2023/04/02 11:29:45;;;;;;;6.65;2.38;;;;;;;10.65;84.24;102227.34;5008300;28;20053;-46
2023/04/02 11:32:23;;;;;;;5.40;2.08;;;;;;;10.62;84.28;102228.78;5005011;28;20072;-50
2023/04/02 11:34:53;;;;;;;7.55;2.45;;;;;;;10.62;84.19;102233.50;5003147;28;20068;-45
2023/04/02 11:37:43;;;;;;;3.75;2.03;;;;;;;10.64;84.17;102234.03;5007005;28;20049;-49
2023/04/02 11:40:10;;;;;;;6.22;1.88;;;;;;;10.71;83.79;102238.03;5005293;28;20560;-44
2023/04/02 11:42:39;;;;;;;4.03;2.13;;;;;;;10.78;83.72;102235.63;4992352;28;20077;-44
2023/04/02 11:45:27;;;;;;;8.13;2.30;;;;;;;10.84;83.55;102231.63;5009179;28;20875;-54
2023/04/02 11:48:00;;;;;;;4.22;2.15;;;;;;;10.91;83.21;102237.56;5008461;28;20475;-46
2023/04/02 11:50:33;;;;;;;5.72;2.30;;;;;;;10.99;83.02;102238.78;5009733;28;20046;-45
2023/04/02 11:53:05;;;;;;;5.38;1.83;;;;;;;11.08;83.03;102233.31;5009521;28;20080;-45
2023/04/02 11:55:33;;;;;;;10.43;3.17;;;;;;;11.05;82.70;102236.72;5009446;28;20065;-50
2023/04/02 11:58:22;;;;;;;6.15;2.38;;;;;;;10.97;82.55;102244.63;5009600;28;20050;-44
2023/04/02 12:01:04;;;;;;;10.73;4.35;;;;;;;10.95;82.84;102249.69;5009518;28;20137;-49
2023/04/02 12:03:33;;;;;;;5.88;2.42;;;;;;;11.09;82.81;102238.56;5009672;28;20124;-44
2023/04/02 12:06:12;;;;;;;8.13;2.40;;;;;;;11.15;82.50;102242.84;5010047;28;20049;-45
2023/04/02 12:08:57;;;;;;;7.68;2.00;;;;;;;11.30;82.71;102242.50;5008992;28;20049;-48